createdAt,value
2023-02-11T00:00:00.541Z,17
2023-02-11T00:01:00.528Z,17
2023-02-11T00:02:00.578Z,16
2023-02-11T00:03:00.601Z,17
2023-02-11T00:04:00.553Z,17
2023-02-11T00:05:00.554Z,17
2023-02-11T00:06:00.542Z,17
2023-02-11T00:07:00.571Z,16
2023-02-11T00:08:00.553Z,17
2023-02-11T00:09:00.538Z,17
2023-02-11T00:10:00.552Z,17
2023-02-11T00:11:00.557Z,17
2023-02-11T00:12:00.567Z,17
2023-02-11T00:13:00.550Z,17
2023-02-11T00:14:00.572Z,16
2023-02-11T00:15:00.552Z,17
2023-02-11T00:16:00.561Z,16
2023-02-11T00:17:00.705Z,17
2023-02-11T00:18:00.546Z,15
2023-02-11T00:20:00.559Z,16
2023-02-11T00:21:00.547Z,16
2023-02-11T00:22:00.554Z,16
2023-02-11T00:23:00.549Z,17
2023-02-11T00:24:00.553Z,15
2023-02-11T00:25:00.551Z,16
2023-02-11T00:26:00.541Z,16
2023-02-11T00:27:00.552Z,16
2023-02-11T00:28:00.595Z,16
2023-02-11T00:29:00.548Z,15
2023-02-11T00:30:00.557Z,16
2023-02-11T00:31:00.666Z,16
2023-02-11T00:32:00.604Z,16
2023-02-11T00:33:00.546Z,15
2023-02-11T00:34:00.569Z,15
2023-02-11T00:35:00.547Z,16
2023-02-11T00:36:00.544Z,15
2023-02-11T00:37:00.546Z,16
2023-02-11T00:38:00.569Z,15
2023-02-11T00:39:00.596Z,15
2023-02-11T00:40:00.548Z,16
2023-02-11T00:41:00.547Z,15
2023-02-11T00:42:00.554Z,15
2023-02-11T00:43:00.552Z,15
2023-02-11T00:45:00.543Z,16
2023-02-11T00:46:00.568Z,15
2023-02-11T00:47:00.543Z,16
2023-02-11T00:48:00.536Z,15
2023-02-11T00:49:00.548Z,17
2023-02-11T00:50:00.603Z,14
2023-02-11T00:51:00.575Z,15
2023-02-11T00:53:00.556Z,15
2023-02-11T00:54:00.563Z,15
2023-02-11T00:55:00.540Z,15
2023-02-11T00:56:00.552Z,15
2023-02-11T00:57:00.576Z,14
2023-02-11T00:58:00.546Z,14
2023-02-11T00:59:00.535Z,14
2023-02-11T01:00:00.542Z,15
2023-02-11T01:01:00.618Z,15
2023-02-11T01:02:00.543Z,14
2023-02-11T01:03:00.563Z,15
2023-02-11T01:04:00.557Z,15
2023-02-11T01:05:00.569Z,14
2023-02-11T01:06:00.576Z,15
2023-02-11T01:07:00.545Z,14
2023-02-11T01:08:00.555Z,14
2023-02-11T01:09:00.586Z,14
2023-02-11T01:10:00.565Z,15
2023-02-11T01:11:00.563Z,15
2023-02-11T01:12:00.552Z,15
2023-02-11T01:13:00.550Z,15
2023-02-11T01:14:00.581Z,15
2023-02-11T01:15:00.552Z,15
2023-02-11T01:16:00.644Z,15
2023-02-11T01:17:00.573Z,13
2023-02-11T01:18:00.576Z,15
2023-02-11T01:19:00.580Z,16
2023-02-11T01:20:00.570Z,15
2023-02-11T01:21:00.557Z,14
2023-02-11T01:22:00.554Z,14
2023-02-11T01:23:00.570Z,14
2023-02-11T01:24:00.563Z,14
2023-02-11T01:25:00.572Z,14
2023-02-11T01:26:00.589Z,14
2023-02-11T01:27:00.559Z,13
2023-02-11T01:28:00.623Z,15
2023-02-11T01:29:00.554Z,14
2023-02-11T01:30:00.583Z,14
2023-02-11T01:32:00.662Z,14
2023-02-11T01:33:00.646Z,15
2023-02-11T01:34:00.585Z,13
2023-02-11T01:35:00.589Z,15
2023-02-11T01:36:00.598Z,15
2023-02-11T01:37:00.562Z,14
2023-02-11T01:38:00.560Z,13
2023-02-11T01:39:00.562Z,13
2023-02-11T01:40:00.596Z,13
2023-02-11T01:41:00.573Z,14
2023-02-11T01:42:00.569Z,13
2023-02-11T01:43:00.583Z,14
2023-02-11T01:44:00.587Z,13
2023-02-11T01:45:00.637Z,13
2023-02-11T01:46:00.609Z,13
2023-02-11T01:47:00.587Z,13
2023-02-11T01:48:00.574Z,13
2023-02-11T01:49:00.654Z,13
2023-02-11T01:50:00.632Z,15
2023-02-11T01:51:00.563Z,13
2023-02-11T01:52:00.560Z,13
2023-02-11T01:53:00.567Z,14
2023-02-11T01:54:00.568Z,14
2023-02-11T01:55:00.570Z,14
2023-02-11T01:56:00.574Z,12
2023-02-11T01:57:00.578Z,13
2023-02-11T01:58:00.610Z,13
2023-02-11T01:59:00.574Z,13
2023-02-11T02:00:00.571Z,13
2023-02-11T02:01:00.560Z,12
2023-02-11T02:02:00.698Z,14
2023-02-11T02:03:00.609Z,13
2023-02-11T02:04:00.687Z,13
2023-02-11T02:05:00.570Z,13
2023-02-11T02:06:00.594Z,13
2023-02-11T02:07:00.583Z,13
2023-02-11T02:08:00.582Z,13
2023-02-11T02:09:00.578Z,13
2023-02-11T02:10:01.380Z,13
2023-02-11T02:11:00.614Z,13
2023-02-11T02:12:00.586Z,12
2023-02-11T02:13:00.568Z,14
2023-02-11T02:15:00.570Z,12
2023-02-11T02:16:00.613Z,12
2023-02-11T02:17:00.565Z,12
2023-02-11T02:18:00.564Z,12
2023-02-11T02:19:00.634Z,12
2023-02-11T02:20:00.591Z,12
2023-02-11T02:21:00.575Z,13
2023-02-11T02:22:00.605Z,14
2023-02-11T02:23:00.582Z,12
2023-02-11T02:24:00.575Z,12
2023-02-11T02:25:00.578Z,12
2023-02-11T02:26:00.574Z,12
2023-02-11T02:27:00.580Z,12
2023-02-11T02:28:00.623Z,12
2023-02-11T02:29:00.608Z,11
2023-02-11T02:30:00.598Z,12
2023-02-11T02:31:00.743Z,13
2023-02-11T02:32:00.576Z,13
2023-02-11T02:33:05.848Z,13
2023-02-11T02:35:00.583Z,12
2023-02-11T02:36:00.587Z,12
2023-02-11T02:37:00.587Z,12
2023-02-11T02:38:00.588Z,13
2023-02-11T02:39:00.605Z,12
2023-02-11T02:40:00.601Z,11
2023-02-11T02:41:00.588Z,12
2023-02-11T02:42:00.596Z,11
2023-02-11T02:43:00.572Z,12
2023-02-11T02:44:00.591Z,11
2023-02-11T02:45:00.580Z,12
2023-02-11T02:46:00.585Z,11
2023-02-11T02:47:00.702Z,11
2023-02-11T02:48:00.578Z,11
2023-02-11T02:49:00.573Z,11
2023-02-11T02:50:00.598Z,13
2023-02-11T02:51:00.575Z,13
2023-02-11T02:52:00.589Z,11
2023-02-11T02:53:00.610Z,12
2023-02-11T02:54:00.601Z,12
2023-02-11T02:56:00.607Z,12
2023-02-11T02:57:00.585Z,12
2023-02-11T02:58:00.572Z,12
2023-02-11T02:59:00.597Z,11
2023-02-11T03:00:00.581Z,12
2023-02-11T03:01:00.659Z,12
2023-02-11T03:02:00.579Z,11
2023-02-11T03:03:00.594Z,11
2023-02-11T03:04:00.722Z,11
2023-02-11T03:05:00.610Z,11
2023-02-11T03:06:00.650Z,11
2023-02-11T03:07:00.587Z,11
2023-02-11T03:08:00.586Z,12
2023-02-11T03:09:00.601Z,11
2023-02-11T03:10:00.606Z,11
2023-02-11T03:11:00.616Z,12
2023-02-11T03:12:00.598Z,11
2023-02-11T03:13:00.636Z,11
2023-02-11T03:14:00.609Z,10
2023-02-11T03:15:00.603Z,12
2023-02-11T03:17:00.589Z,11
2023-02-11T03:18:00.597Z,11
2023-02-11T03:19:00.602Z,10
2023-02-11T03:20:00.599Z,11
2023-02-11T03:21:00.596Z,10
2023-02-11T03:22:00.576Z,11
2023-02-11T03:23:00.631Z,11
2023-02-11T03:24:00.588Z,11
2023-02-11T03:25:00.614Z,11
2023-02-11T03:26:00.595Z,11
2023-02-11T03:27:00.593Z,11
2023-02-11T03:28:00.608Z,11
2023-02-11T03:29:00.601Z,10
2023-02-11T03:30:00.602Z,11
2023-02-11T03:31:00.670Z,11
2023-02-11T03:32:00.731Z,10
2023-02-11T03:33:00.605Z,12
2023-02-11T03:34:00.602Z,10
2023-02-11T03:35:00.602Z,10
2023-02-11T03:36:00.595Z,10
2023-02-11T03:37:00.602Z,10
2023-02-11T03:38:00.619Z,10
2023-02-11T03:39:00.617Z,11
2023-02-11T03:40:00.600Z,10
2023-02-11T03:41:01.613Z,11
2023-02-11T03:42:00.581Z,10
2023-02-11T03:43:00.592Z,11
2023-02-11T03:44:00.652Z,10
2023-02-11T03:45:00.621Z,11
2023-02-11T03:46:00.620Z,11
2023-02-11T03:47:00.601Z,11
2023-02-11T03:49:00.616Z,11
2023-02-11T03:51:00.594Z,10
2023-02-11T03:52:00.602Z,11
2023-02-11T03:53:00.593Z,11
2023-02-11T03:54:00.611Z,10
2023-02-11T03:55:00.639Z,11
2023-02-11T03:56:00.601Z,10
2023-02-11T03:57:00.601Z,10
2023-02-11T03:58:00.598Z,10
2023-02-11T03:59:00.594Z,11
2023-02-11T04:00:00.636Z,11
2023-02-11T04:01:00.652Z,10
2023-02-11T04:02:00.616Z,11
2023-02-11T04:03:00.641Z,10
2023-02-11T04:04:00.600Z,11
2023-02-11T04:05:00.600Z,12
2023-02-11T04:06:00.589Z,11
2023-02-11T04:07:00.599Z,10
2023-02-11T04:08:00.619Z,10
2023-02-11T04:09:00.617Z,11
2023-02-11T04:10:00.641Z,12
2023-02-11T04:11:00.631Z,11
2023-02-11T04:12:00.639Z,11
2023-02-11T04:13:00.608Z,11
2023-02-11T04:14:00.604Z,10
2023-02-11T04:15:00.633Z,11
2023-02-11T04:16:00.636Z,11
2023-02-11T04:17:00.642Z,12
2023-02-11T04:18:00.600Z,11
2023-02-11T04:19:00.594Z,11
2023-02-11T04:20:00.601Z,11
2023-02-11T04:21:00.603Z,12
2023-02-11T04:22:00.612Z,11
2023-02-11T04:23:00.642Z,12
2023-02-11T04:24:00.650Z,10
2023-02-11T04:25:00.604Z,12
2023-02-11T04:26:00.612Z,11
2023-02-11T04:27:00.608Z,11
2023-02-11T04:29:00.605Z,12
2023-02-11T04:30:00.598Z,11
2023-02-11T04:31:00.713Z,12
2023-02-11T04:32:00.648Z,12
2023-02-11T04:33:00.616Z,13
2023-02-11T04:34:00.674Z,12
2023-02-11T04:35:00.624Z,11
2023-02-11T04:36:00.617Z,13
2023-02-11T04:37:00.620Z,11
2023-02-11T04:38:00.619Z,11
2023-02-11T04:39:00.627Z,12
2023-02-11T04:40:00.614Z,12
2023-02-11T04:41:00.620Z,11
2023-02-11T04:42:00.634Z,11
2023-02-11T04:43:00.609Z,10
2023-02-11T04:44:00.614Z,11
2023-02-11T04:45:00.623Z,12
2023-02-11T04:46:00.751Z,12
2023-02-11T04:47:00.603Z,12
2023-02-11T04:48:00.615Z,11
2023-02-11T04:49:00.635Z,12
2023-02-11T04:50:00.612Z,12
2023-02-11T04:51:00.646Z,12
2023-02-11T04:52:00.623Z,12
2023-02-11T04:53:00.610Z,13
2023-02-11T04:54:00.622Z,12
2023-02-11T04:55:00.606Z,12
2023-02-11T04:56:00.628Z,12
2023-02-11T04:57:01.215Z,12
2023-02-11T04:58:00.609Z,11
2023-02-11T04:59:00.607Z,12
2023-02-11T05:00:00.614Z,11
2023-02-11T05:01:00.670Z,13
2023-02-11T05:02:00.630Z,13
2023-02-11T05:03:00.636Z,13
2023-02-11T05:04:00.653Z,13
2023-02-11T05:05:00.622Z,12
2023-02-11T05:06:00.636Z,12
2023-02-11T05:07:00.624Z,12
2023-02-11T05:08:00.626Z,13
2023-02-11T05:09:00.623Z,12
2023-02-11T05:10:00.615Z,13
2023-02-11T05:11:00.615Z,13
2023-02-11T05:13:00.612Z,12
2023-02-11T05:14:00.616Z,13
2023-02-11T05:15:00.615Z,12
2023-02-11T05:16:00.615Z,13
2023-02-11T05:17:00.697Z,12
2023-02-11T05:18:00.623Z,12
2023-02-11T05:19:00.616Z,12
2023-02-11T05:20:00.669Z,13
2023-02-11T05:21:00.612Z,13
2023-02-11T05:22:03.400Z,13
2023-02-11T05:23:00.612Z,12
2023-02-11T05:24:00.623Z,13
2023-02-11T05:25:00.665Z,13
2023-02-11T05:26:00.610Z,13
2023-02-11T05:27:00.636Z,13
2023-02-11T05:28:00.678Z,12
2023-02-11T05:29:00.629Z,13
2023-02-11T05:32:00.643Z,13
2023-02-11T05:33:00.652Z,13
2023-02-11T05:34:00.623Z,13
2023-02-11T05:35:00.625Z,14
2023-02-11T05:36:00.630Z,13
2023-02-11T05:37:00.739Z,14
2023-02-11T05:38:00.617Z,13
2023-02-11T05:39:00.610Z,14
2023-02-11T05:40:00.615Z,13
2023-02-11T05:41:00.635Z,13
2023-02-11T05:42:00.642Z,12
2023-02-11T05:43:00.636Z,12
2023-02-11T05:44:00.631Z,13
2023-02-11T05:45:00.623Z,13
2023-02-11T05:46:00.659Z,13
2023-02-11T05:47:00.647Z,13
2023-02-11T05:48:00.648Z,13
2023-02-11T05:49:00.616Z,13
2023-02-11T05:50:00.618Z,13
2023-02-11T05:51:00.655Z,13
2023-02-11T05:52:00.620Z,14
2023-02-11T05:53:00.648Z,13
2023-02-11T05:54:00.617Z,14
2023-02-11T05:55:00.621Z,13
2023-02-11T05:56:00.620Z,14
2023-02-11T05:57:00.624Z,14
2023-02-11T05:58:00.997Z,15
2023-02-11T05:59:00.651Z,13
2023-02-11T06:00:00.682Z,14
2023-02-11T06:01:00.626Z,15
2023-02-11T06:02:00.618Z,14
2023-02-11T06:03:00.670Z,14
2023-02-11T06:04:00.731Z,14
2023-02-11T06:05:00.624Z,14
2023-02-11T06:06:00.635Z,14
2023-02-11T06:07:00.630Z,13
2023-02-11T06:08:00.629Z,14
2023-02-11T06:09:00.670Z,15
2023-02-11T06:10:00.626Z,15
2023-02-11T06:11:00.620Z,16
2023-02-11T06:12:00.620Z,17
2023-02-11T06:13:00.661Z,15
2023-02-11T06:14:00.636Z,17
2023-02-11T06:15:00.664Z,16
2023-02-11T06:16:00.682Z,16
2023-02-11T06:17:00.632Z,15
2023-02-11T06:18:00.631Z,16
2023-02-11T06:19:00.657Z,15
2023-02-11T06:20:00.645Z,15
2023-02-11T06:21:00.653Z,16
2023-02-11T06:22:00.647Z,16
2023-02-11T06:23:00.646Z,16
2023-02-11T06:24:00.644Z,15
2023-02-11T06:25:02.179Z,16
2023-02-11T06:26:00.678Z,16
2023-02-11T06:27:00.650Z,15
2023-02-11T06:28:00.697Z,16
2023-02-11T06:29:00.636Z,16
2023-02-11T06:30:00.641Z,16
2023-02-11T06:31:00.684Z,15
2023-02-11T06:32:00.837Z,15
2023-02-11T06:34:00.628Z,16
2023-02-11T06:35:00.624Z,15
2023-02-11T06:36:00.628Z,16
2023-02-11T06:37:00.625Z,16
2023-02-11T06:38:00.627Z,16
2023-02-11T06:39:00.635Z,16
2023-02-11T06:40:00.629Z,17
2023-02-11T06:41:00.638Z,16
2023-02-11T06:42:00.663Z,15
2023-02-11T06:43:00.653Z,16
2023-02-11T06:44:00.639Z,16
2023-02-11T06:45:00.643Z,15
2023-02-11T06:46:00.626Z,16
2023-02-11T06:47:00.635Z,6
2023-02-11T06:48:00.687Z,5
2023-02-11T06:49:00.665Z,5
2023-02-11T06:50:00.658Z,15
2023-02-11T06:51:00.637Z,13
2023-02-11T06:52:00.655Z,14
2023-02-11T06:53:00.643Z,14
2023-02-11T06:54:00.645Z,15
2023-02-11T06:55:00.631Z,14
2023-02-11T06:56:00.631Z,14
2023-02-11T06:57:00.636Z,15
2023-02-11T06:58:00.660Z,15
2023-02-11T06:59:00.638Z,15
2023-02-11T07:00:00.644Z,15
2023-02-11T07:01:00.642Z,14
2023-02-11T07:02:00.723Z,15
2023-02-11T07:04:00.651Z,15
2023-02-11T07:05:00.693Z,15
2023-02-11T07:06:00.643Z,14
2023-02-11T07:07:00.641Z,15
2023-02-11T07:08:00.636Z,14
2023-02-11T07:09:00.639Z,14
2023-02-11T07:10:00.687Z,15
2023-02-11T07:11:00.651Z,15
2023-02-11T07:12:00.642Z,15
2023-02-11T07:13:00.642Z,14
2023-02-11T07:14:00.641Z,14
2023-02-11T07:15:00.638Z,15
2023-02-11T07:16:00.716Z,15
2023-02-11T07:17:00.643Z,15
2023-02-11T07:18:00.646Z,15
2023-02-11T07:19:00.651Z,14
2023-02-11T07:20:00.641Z,15
2023-02-11T07:21:00.669Z,14
2023-02-11T07:22:00.684Z,14
2023-02-11T07:23:00.662Z,15
2023-02-11T07:24:00.670Z,14
2023-02-11T07:25:00.675Z,14
2023-02-11T07:26:00.659Z,16
2023-02-11T07:28:00.697Z,16
2023-02-11T07:29:00.650Z,15
2023-02-11T07:30:00.661Z,14
2023-02-11T07:31:00.812Z,15
2023-02-11T07:32:00.738Z,14
2023-02-11T07:33:00.640Z,14
2023-02-11T07:34:00.673Z,15
2023-02-11T07:35:00.759Z,16
2023-02-11T07:36:00.647Z,14
2023-02-11T07:37:00.656Z,15
2023-02-11T07:38:00.708Z,14
2023-02-11T07:39:00.679Z,14
2023-02-11T07:40:00.647Z,14
2023-02-11T07:41:00.650Z,15
2023-02-11T07:42:00.664Z,15
2023-02-11T07:43:00.662Z,15
2023-02-11T07:44:00.665Z,14
2023-02-11T07:45:00.739Z,13
2023-02-11T07:46:00.649Z,14
2023-02-11T07:47:00.733Z,13
2023-02-11T07:49:00.658Z,14
2023-02-11T07:50:00.678Z,13
2023-02-11T07:51:00.653Z,15
2023-02-11T07:52:00.690Z,14
2023-02-11T07:53:00.667Z,14
2023-02-11T07:54:00.706Z,15
2023-02-11T07:55:02.618Z,14
2023-02-11T07:56:00.684Z,14
2023-02-11T07:57:00.682Z,15
2023-02-11T07:58:00.657Z,14
2023-02-11T07:59:00.655Z,14
2023-02-11T08:00:00.678Z,15
2023-02-11T08:01:00.724Z,15
2023-02-11T08:02:00.769Z,13
2023-02-11T08:03:00.669Z,14
2023-02-11T08:04:00.712Z,14
2023-02-11T08:05:00.658Z,14
2023-02-11T08:06:00.654Z,14
2023-02-11T08:07:00.670Z,15
2023-02-11T08:08:00.703Z,14
2023-02-11T08:10:00.655Z,15
2023-02-11T08:11:00.681Z,15
2023-02-11T08:12:00.677Z,16
2023-02-11T08:13:00.729Z,14
2023-02-11T08:14:00.691Z,14
2023-02-11T08:15:00.687Z,15
2023-02-11T08:16:00.737Z,14
2023-02-11T08:17:00.667Z,15
2023-02-11T08:18:00.676Z,14
2023-02-11T08:19:00.695Z,5
2023-02-11T08:20:00.659Z,6
2023-02-11T08:21:00.652Z,5
2023-02-11T08:22:00.704Z,7
2023-02-11T08:23:00.656Z,8
2023-02-11T08:24:00.659Z,7
2023-02-11T08:25:00.693Z,10
2023-02-11T08:26:00.707Z,13
2023-02-11T08:27:00.650Z,13
2023-02-11T08:28:00.684Z,14
2023-02-11T08:30:00.695Z,13
2023-02-11T08:31:00.760Z,13
2023-02-11T08:32:00.744Z,14
2023-02-11T08:33:00.662Z,14
2023-02-11T08:34:00.671Z,13
2023-02-11T08:35:00.670Z,15
2023-02-11T08:36:00.668Z,13
2023-02-11T08:37:00.677Z,15
2023-02-11T08:39:17.613Z,14
2023-02-11T08:40:00.680Z,14
2023-02-11T08:41:00.679Z,14
2023-02-11T08:42:00.683Z,15
2023-02-11T08:43:00.675Z,15
2023-02-11T08:44:00.660Z,15
2023-02-11T08:45:00.664Z,15
2023-02-11T08:46:02.158Z,14
2023-02-11T08:47:00.674Z,15
2023-02-11T08:48:00.675Z,15
2023-02-11T08:49:00.692Z,15
2023-02-11T08:50:00.680Z,16
2023-02-11T08:51:00.681Z,16
2023-02-11T08:52:00.682Z,14
2023-02-11T08:53:00.705Z,15
2023-02-11T08:54:00.722Z,15
2023-02-11T08:55:00.727Z,16
2023-02-11T08:56:00.686Z,15
2023-02-11T08:57:00.679Z,17
2023-02-11T08:58:00.681Z,16
2023-02-11T08:59:00.692Z,16
2023-02-11T09:00:00.662Z,15
2023-02-11T09:01:00.738Z,15
2023-02-11T09:02:00.714Z,16
2023-02-11T09:03:00.684Z,16
2023-02-11T09:04:00.692Z,17
2023-02-11T09:05:00.690Z,16
2023-02-11T09:06:00.691Z,15
2023-02-11T09:07:00.694Z,15
2023-02-11T09:08:00.699Z,17
2023-02-11T09:09:00.681Z,16
2023-02-11T09:10:00.732Z,17
2023-02-11T09:11:00.686Z,15
2023-02-11T09:12:00.695Z,15
2023-02-11T09:13:00.689Z,17
2023-02-11T09:15:00.708Z,17
2023-02-11T09:16:00.677Z,17
2023-02-11T09:17:00.741Z,17
2023-02-11T09:18:00.689Z,16
2023-02-11T09:19:00.689Z,18
2023-02-11T09:20:00.687Z,17
2023-02-11T09:21:00.682Z,17
2023-02-11T09:22:00.690Z,17
2023-02-11T09:23:00.687Z,17
2023-02-11T09:24:00.715Z,16
2023-02-11T09:25:00.702Z,18
2023-02-11T09:26:00.697Z,15
2023-02-11T09:27:00.694Z,17
2023-02-11T09:28:00.731Z,17
2023-02-11T09:29:00.702Z,18
2023-02-11T09:30:00.679Z,18
2023-02-11T09:31:00.773Z,18
2023-02-11T09:32:00.863Z,17
2023-02-11T09:33:00.674Z,18
2023-02-11T09:34:00.673Z,17
2023-02-11T09:35:00.696Z,18
2023-02-11T09:36:00.667Z,18
2023-02-11T09:37:00.753Z,17
2023-02-11T09:38:00.703Z,18
2023-02-11T09:39:00.724Z,16
2023-02-11T09:40:00.705Z,17
2023-02-11T09:41:00.712Z,18
2023-02-11T09:42:00.669Z,18
2023-02-11T09:43:04.036Z,18
2023-02-11T09:44:00.700Z,17
2023-02-11T09:45:00.699Z,16
2023-02-11T09:46:00.775Z,18
2023-02-11T09:47:00.711Z,16
2023-02-11T09:48:00.710Z,17
2023-02-11T09:49:00.725Z,18
2023-02-11T09:50:00.759Z,17
2023-02-11T09:51:00.693Z,17
2023-02-11T09:52:00.710Z,19
2023-02-11T09:53:00.697Z,17
2023-02-11T09:54:02.142Z,19
2023-02-11T09:55:00.717Z,17
2023-02-11T09:56:00.685Z,19
2023-02-11T09:57:00.683Z,17
2023-02-11T09:58:00.684Z,18
2023-02-11T10:00:00.710Z,19
2023-02-11T10:01:00.735Z,19
2023-02-11T10:02:00.716Z,18
2023-02-11T10:03:00.710Z,19
2023-02-11T10:04:00.755Z,18
2023-02-11T10:05:00.727Z,18
2023-02-11T10:06:00.696Z,18
2023-02-11T10:07:00.699Z,8
2023-02-11T10:08:00.730Z,8
2023-02-11T10:09:00.716Z,10
2023-02-11T10:10:00.690Z,12
2023-02-11T10:11:00.696Z,8
2023-02-11T10:12:00.719Z,9
2023-02-11T10:13:00.710Z,13
2023-02-11T10:14:00.701Z,16
2023-02-11T10:15:00.697Z,16
2023-02-11T10:16:00.867Z,17
2023-02-11T10:17:00.728Z,16
2023-02-11T10:18:00.717Z,17
2023-02-11T10:19:00.701Z,17
2023-02-11T10:20:00.710Z,18
2023-02-11T10:21:00.702Z,18
2023-02-11T10:22:00.701Z,16
2023-02-11T10:23:00.718Z,16
2023-02-11T10:24:00.710Z,16
2023-02-11T10:25:00.720Z,19
2023-02-11T10:26:00.722Z,18
2023-02-11T10:27:00.711Z,17
2023-02-11T10:28:00.740Z,18
2023-02-11T10:29:00.702Z,17
2023-02-11T10:30:00.723Z,18
2023-02-11T10:31:00.931Z,16
2023-02-11T10:32:00.754Z,17
2023-02-11T10:33:00.699Z,16
2023-02-11T10:34:00.711Z,18
2023-02-11T10:35:00.734Z,18
2023-02-11T10:36:00.702Z,17
2023-02-11T10:37:00.699Z,19
2023-02-11T10:38:00.760Z,18
2023-02-11T10:39:00.739Z,17
2023-02-11T10:40:00.723Z,18
2023-02-11T10:41:00.713Z,18
2023-02-11T10:42:00.695Z,18
2023-02-11T10:43:00.747Z,19
2023-02-11T10:44:00.723Z,19
2023-02-11T10:47:00.696Z,18
2023-02-11T10:48:00.773Z,18
2023-02-11T10:49:00.724Z,18
2023-02-11T10:50:00.713Z,18
2023-02-11T10:51:00.718Z,18
2023-02-11T10:52:00.713Z,20
2023-02-11T10:53:00.730Z,17
2023-02-11T10:54:00.705Z,18
2023-02-11T10:55:00.706Z,18
2023-02-11T10:56:00.728Z,18
2023-02-11T10:57:00.740Z,19
2023-02-11T10:58:00.754Z,18
2023-02-11T10:59:00.718Z,19
2023-02-11T11:00:00.739Z,19
2023-02-11T11:01:00.704Z,18
2023-02-11T11:02:00.828Z,19
2023-02-11T11:03:00.702Z,20
2023-02-11T11:04:00.730Z,18
2023-02-11T11:05:00.822Z,19
2023-02-11T11:07:00.728Z,20
2023-02-11T11:08:00.726Z,19
2023-02-11T11:09:00.727Z,20
2023-02-11T11:10:00.783Z,18
2023-02-11T11:11:00.723Z,19
2023-02-11T11:12:00.732Z,17
2023-02-11T11:13:00.730Z,19
2023-02-11T11:14:00.739Z,18
2023-02-11T11:15:00.733Z,20
2023-02-11T11:16:00.768Z,20
2023-02-11T11:17:00.718Z,18
2023-02-11T11:18:19.238Z,19
2023-02-11T11:19:00.729Z,20
2023-02-11T11:20:00.719Z,18
2023-02-11T11:21:00.791Z,19
2023-02-11T11:23:00.716Z,21
2023-02-11T11:24:00.729Z,20
2023-02-11T11:25:00.708Z,20
2023-02-11T11:26:00.708Z,19
2023-02-11T11:27:00.779Z,19
2023-02-11T11:28:00.819Z,20
2023-02-11T11:29:00.737Z,19
2023-02-11T11:30:00.726Z,19
2023-02-11T11:31:00.933Z,19
2023-02-11T11:32:00.840Z,21
2023-02-11T11:33:00.724Z,22
2023-02-11T11:34:00.724Z,19
2023-02-11T11:35:00.705Z,20
2023-02-11T11:36:00.706Z,20
2023-02-11T11:37:00.753Z,21
2023-02-11T11:38:02.092Z,20
2023-02-11T11:39:00.742Z,20
2023-02-11T11:40:00.730Z,19
2023-02-11T11:41:00.719Z,20
2023-02-11T11:42:00.725Z,20
2023-02-11T11:43:00.730Z,21
2023-02-11T11:44:00.740Z,21
2023-02-11T11:45:00.779Z,21
2023-02-11T11:46:00.732Z,21
2023-02-11T11:47:00.786Z,20
2023-02-11T11:48:00.723Z,19
2023-02-11T11:49:00.727Z,20
2023-02-11T11:50:00.715Z,21
2023-02-11T11:51:00.734Z,21
2023-02-11T11:52:00.738Z,19
2023-02-11T11:53:00.708Z,21
2023-02-11T11:54:00.752Z,21
2023-02-11T11:55:00.737Z,21
2023-02-11T11:56:00.743Z,20
2023-02-11T11:57:00.724Z,21
2023-02-11T11:58:00.731Z,20
2023-02-11T11:59:00.760Z,20
2023-02-11T12:00:00.740Z,21
2023-02-11T12:01:00.737Z,21
2023-02-11T12:02:00.836Z,20
2023-02-11T12:03:00.838Z,20
2023-02-11T12:04:00.753Z,21
2023-02-11T12:05:00.730Z,23
2023-02-11T12:06:00.789Z,21
2023-02-11T12:07:00.720Z,22
2023-02-11T12:08:00.760Z,21
2023-02-11T12:09:00.770Z,21
2023-02-11T12:10:00.749Z,20
2023-02-11T12:11:00.729Z,22
2023-02-11T12:12:00.722Z,21
2023-02-11T12:13:00.770Z,20
2023-02-11T12:14:00.722Z,21
2023-02-11T12:15:00.792Z,22
2023-02-11T12:16:00.859Z,21
2023-02-11T12:17:00.741Z,22
2023-02-11T12:18:00.793Z,22
2023-02-11T12:19:00.720Z,22
2023-02-11T12:20:00.759Z,22
2023-02-11T12:21:00.725Z,21
2023-02-11T12:22:00.722Z,20
2023-02-11T12:23:00.757Z,21
2023-02-11T12:24:00.766Z,21
2023-02-11T12:25:00.756Z,21
2023-02-11T12:26:00.737Z,22
2023-02-11T12:27:00.745Z,22
2023-02-11T12:28:00.764Z,21
2023-02-11T12:29:00.729Z,21
2023-02-11T12:30:00.728Z,22
2023-02-11T12:31:00.762Z,21
2023-02-11T12:32:00.809Z,23
2023-02-11T12:33:00.737Z,21
2023-02-11T12:34:00.730Z,22
2023-02-11T12:35:00.726Z,23
2023-02-11T12:36:00.732Z,22
2023-02-11T12:37:02.853Z,22
2023-02-11T12:38:00.741Z,22
2023-02-11T12:39:00.754Z,23
2023-02-11T12:40:00.794Z,23
2023-02-11T12:42:00.733Z,25
2023-02-11T12:43:02.536Z,24
2023-02-11T12:45:00.744Z,24
2023-02-11T12:46:00.929Z,25
2023-02-11T12:47:00.754Z,24
2023-02-11T12:48:00.723Z,25
2023-02-11T12:49:00.733Z,23
2023-02-11T12:50:00.773Z,25
2023-02-11T12:51:00.755Z,23
2023-02-11T12:52:00.763Z,23
2023-02-11T12:53:00.774Z,24
2023-02-11T12:54:00.759Z,23
2023-02-11T12:55:00.800Z,23
2023-02-11T12:56:00.762Z,24
2023-02-11T12:57:00.742Z,23
2023-02-11T12:58:00.756Z,23
2023-02-11T12:59:00.753Z,22
2023-02-11T13:00:00.757Z,22
2023-02-11T13:01:00.784Z,24
2023-02-11T13:03:00.736Z,23
2023-02-11T13:04:00.748Z,22
2023-02-11T13:05:00.777Z,22
2023-02-11T13:06:00.746Z,21
2023-02-11T13:07:00.814Z,21
2023-02-11T13:08:00.746Z,23
2023-02-11T13:09:00.789Z,23
2023-02-11T13:10:00.785Z,22
2023-02-11T13:11:00.748Z,22
2023-02-11T13:13:00.771Z,22
2023-02-11T13:14:00.768Z,21
2023-02-11T13:15:00.762Z,21
2023-02-11T13:16:00.771Z,20
2023-02-11T13:17:00.807Z,20
2023-02-11T13:18:00.783Z,20
2023-02-11T13:19:00.788Z,20
2023-02-11T13:20:00.785Z,21
2023-02-11T13:21:00.775Z,20
2023-02-11T13:22:00.753Z,19
2023-02-11T13:24:00.776Z,20
2023-02-11T13:25:00.788Z,20
2023-02-11T13:26:00.771Z,21
2023-02-11T13:27:00.773Z,20
2023-02-11T13:28:00.790Z,20
2023-02-11T13:29:00.768Z,19
2023-02-11T13:30:04.056Z,21
2023-02-11T13:31:00.938Z,21
2023-02-11T13:32:01.356Z,19
2023-02-11T13:33:00.739Z,20
2023-02-11T13:34:01.147Z,20
2023-02-11T13:35:00.791Z,21
2023-02-11T13:36:04.151Z,20
2023-02-11T13:37:00.767Z,20
2023-02-11T13:38:00.759Z,20
2023-02-11T13:39:00.764Z,20
2023-02-11T13:40:00.773Z,19
2023-02-11T13:41:00.757Z,20
2023-02-11T13:42:00.766Z,20
2023-02-11T13:43:00.763Z,20
2023-02-11T13:44:00.777Z,19
2023-02-11T13:45:00.773Z,20
2023-02-11T13:46:00.899Z,19
2023-02-11T13:47:00.761Z,20
2023-02-11T13:48:00.775Z,20
2023-02-11T13:49:00.787Z,19
2023-02-11T13:50:00.773Z,20
2023-02-11T13:51:00.868Z,20
2023-02-11T13:52:00.760Z,19
2023-02-11T13:53:00.772Z,20
2023-02-11T13:54:00.778Z,20
2023-02-11T13:55:00.777Z,19
2023-02-11T13:56:00.788Z,20
2023-02-11T13:57:00.769Z,20
2023-02-11T13:58:00.746Z,18
2023-02-11T13:59:02.095Z,18
2023-02-11T14:00:00.777Z,19
2023-02-11T14:01:00.825Z,19
2023-02-11T14:02:00.828Z,20
2023-02-11T14:04:00.753Z,19
2023-02-11T14:05:00.779Z,19
2023-02-11T14:07:00.761Z,20
2023-02-11T14:08:00.819Z,20
2023-02-11T14:09:00.761Z,19
2023-02-11T14:10:00.777Z,18
2023-02-11T14:11:00.784Z,19
2023-02-11T14:12:00.756Z,18
2023-02-11T14:13:00.821Z,19
2023-02-11T14:14:00.778Z,19
2023-02-11T14:15:02.973Z,21
2023-02-11T14:16:00.770Z,19
2023-02-11T14:17:00.924Z,20
2023-02-11T14:18:00.775Z,20
2023-02-11T14:19:00.758Z,18
2023-02-11T14:20:00.792Z,18
2023-02-11T14:21:03.477Z,17
2023-02-11T14:22:00.756Z,18
2023-02-11T14:23:00.746Z,19
2023-02-11T14:24:00.752Z,18
2023-02-11T14:25:00.865Z,18
2023-02-11T14:26:00.758Z,18
2023-02-11T14:27:00.761Z,19
2023-02-11T14:28:00.792Z,18
2023-02-11T14:29:00.777Z,17
2023-02-11T14:30:00.786Z,18
2023-02-11T14:31:00.921Z,17
2023-02-11T14:32:01.302Z,18
2023-02-11T14:33:00.763Z,16
2023-02-11T14:34:00.772Z,17
2023-02-11T14:35:00.781Z,18
2023-02-11T14:36:00.777Z,17
2023-02-11T14:37:00.793Z,17
2023-02-11T14:38:00.756Z,17
2023-02-11T14:39:00.785Z,17
2023-02-11T14:40:00.774Z,16
2023-02-11T14:41:00.776Z,16
2023-02-11T14:42:00.792Z,16
2023-02-11T14:43:00.771Z,15
2023-02-11T14:44:00.786Z,14
2023-02-11T14:45:01.073Z,14
2023-02-11T14:46:00.808Z,14
2023-02-11T14:47:00.788Z,14
2023-02-11T14:48:00.777Z,16
2023-02-11T14:49:00.804Z,15
2023-02-11T14:50:00.786Z,14